メインページ
METAR-TAF:

METAR-TAF

空港 :

オデッサ国際空港

オデッサ, ウクライナ

緯度: 46-26N, 経度: 030-46E, 海抜: 42m

現時点の気象観測

当レポートは11分前の12:30(UTC)に作成
北/北東の風 12kt、北/北西から北東の間で変化する
気温 1°C
湿度 75%
気圧 1028 hPa
視程10km以上
高度2100ftの曇り

METAR: UKOO 161230Z 03006MPS 340V050 9999 OVC021 01/M03 Q1028 R34/090060 NOSIG

時間: 14:41 (12:41 UTC)

予報

当レポートは1時間38分前の11:03(UTC)に作成
予報は16日の 12時(UTC)から 17日の 12時(UTC)まで有効
北/北東の風 16kt、最大29ktの突風を伴う
視程: 2100m
高度700ftの千切れ雲あり
高度1700ftの雲は散在している, 積乱雲.
弱いにわか雪, 靄
確率 40% :
16日の 13時(UTC)から 16日の 18時(UTC)まで一時的に
視程: 1400m
高度500ftの千切れ雲あり
高度1500ftの雲は散在している, 積乱雲.
着氷性の雨, 雪

TAF: UKOO 161103Z 1612/1712 03008G15MPS 2100 -SHSN BR BKN007 SCT017CB TX02/1612Z TNM01/1703Z PROB40 TEMPO 1613/1618 1400 FZRASN BKN005 SCT015CB

4,000以上の空港の気象観測と天気予報(METAR報とTAF報)

利用可能な観測所は地図上に黄色い丸と赤い丸で示す。

丸の上にカーソルを重ねると観測所名を参照できる。

次にクリックすると気象観測と天気予報を参照できる。

マップの切り替え:黒色「×」印の緑ボタンをクリックして拡大、「-」印の緑ボタンをクリックして縮小、緑色の三角印をクリックして隣りの地図に切り替え


METAR-TAF: